sensor_id;sensor_type;location;lat;lon;timestamp;P1;durP1;ratioP1;P2;durP2;ratioP2
61204;SDS011;47068;55.780;37.520;2022-07-21T10:29:50;4.05;;;3.72;;
61204;SDS011;47068;55.780;37.520;2022-07-21T10:32:20;4.55;;;3.55;;
61204;SDS011;47068;55.780;37.520;2022-07-21T10:35:26;6.57;;;4.18;;
61204;SDS011;47068;55.780;37.520;2022-07-21T10:37:59;3.80;;;3.50;;
61204;SDS011;47068;55.780;37.520;2022-07-21T10:45:29;4.70;;;4.30;;
61204;SDS011;47068;55.780;37.520;2022-07-21T10:47:55;4.30;;;4.00;;
61204;SDS011;47068;55.780;37.520;2022-07-21T10:50:34;3.70;;;3.40;;
61204;SDS011;47068;55.780;37.520;2022-07-21T10:53:14;4.88;;;3.63;;
61204;SDS011;47068;55.780;37.520;2022-07-21T10:55:52;4.13;;;3.72;;
61204;SDS011;47068;55.780;37.520;2022-07-21T10:58:26;5.07;;;3.60;;
61204;SDS011;47068;55.780;37.520;2022-07-21T11:11:16;3.42;;;3.13;;
61204;SDS011;47068;55.780;37.520;2022-07-21T11:24:36;11.50;;;4.18;;
61204;SDS011;47068;55.780;37.520;2022-07-21T11:27:03;4.30;;;3.90;;
61204;SDS011;47068;55.780;37.520;2022-07-21T11:29:29;4.05;;;3.30;;
61204;SDS011;47068;55.780;37.520;2022-07-21T11:31:56;3.15;;;2.70;;
61204;SDS011;47068;55.780;37.520;2022-07-21T11:34:23;4.40;;;3.10;;
61204;SDS011;47068;55.780;37.520;2022-07-21T11:36:57;3.38;;;3.08;;
61204;SDS011;47068;55.780;37.520;2022-07-21T11:39:26;3.40;;;3.03;;
61204;SDS011;47068;55.780;37.520;2022-07-21T11:44:22;5.20;;;3.60;;
61204;SDS011;47068;55.780;37.520;2022-07-21T11:46:55;15.95;;;6.15;;
61204;SDS011;47068;55.780;37.520;2022-07-21T11:49:22;3.65;;;3.33;;
61204;SDS011;47068;55.780;37.520;2022-07-21T11:54:19;5.18;;;3.58;;
61204;SDS011;47068;55.780;37.520;2022-07-21T11:56:51;4.47;;;3.60;;
61204;SDS011;47068;55.780;37.520;2022-07-21T11:59:17;4.57;;;3.50;;
61204;SDS011;47068;55.780;37.520;2022-07-21T12:04:29;6.68;;;3.50;;
61204;SDS011;47068;55.780;37.520;2022-07-21T12:07:04;6.30;;;3.90;;
61204;SDS011;47068;55.780;37.520;2022-07-21T12:09:34;3.97;;;3.67;;
61204;SDS011;47068;55.780;37.520;2022-07-21T12:12:02;4.47;;;4.07;;
61204;SDS011;47068;55.780;37.520;2022-07-21T12:14:47;7.10;;;3.45;;
61204;SDS011;47068;55.780;37.520;2022-07-21T12:17:17;4.78;;;3.70;;
61204;SDS011;47068;55.780;37.520;2022-07-21T12:19:57;4.20;;;3.90;;
61204;SDS011;47068;55.780;37.520;2022-07-21T12:25:33;3.80;;;3.50;;
61204;SDS011;47068;55.780;37.520;2022-07-21T12:28:00;3.97;;;3.58;;
61204;SDS011;47068;55.780;37.520;2022-07-21T12:30:46;4.60;;;3.72;;
61204;SDS011;47068;55.780;37.520;2022-07-21T12:33:15;5.35;;;3.80;;
61204;SDS011;47068;55.780;37.520;2022-07-21T12:36:02;3.85;;;3.20;;
61204;SDS011;47068;55.780;37.520;2022-07-21T12:38:45;3.30;;;3.00;;
61204;SDS011;47068;55.780;37.520;2022-07-21T12:41:13;3.20;;;2.90;;
61204;SDS011;47068;55.780;37.520;2022-07-21T12:43:52;5.30;;;3.65;;
61204;SDS011;47068;55.780;37.520;2022-07-21T12:46:27;3.83;;;3.17;;
61204;SDS011;47068;55.780;37.520;2022-07-21T12:49:02;3.33;;;3.03;;
61204;SDS011;47068;55.780;37.520;2022-07-21T12:51:31;4.80;;;3.55;;
61204;SDS011;47068;55.780;37.520;2022-07-21T12:53:56;3.65;;;3.35;;
61204;SDS011;47068;55.780;37.520;2022-07-21T12:58:55;6.03;;;3.30;;
61204;SDS011;47068;55.780;37.520;2022-07-21T13:01:23;3.30;;;3.10;;
61204;SDS011;47068;55.780;37.520;2022-07-21T13:03:49;3.83;;;2.85;;
61204;SDS011;47068;55.780;37.520;2022-07-21T13:08:42;6.17;;;3.77;;
61204;SDS011;47068;55.780;37.520;2022-07-21T13:11:08;4.28;;;3.75;;
61204;SDS011;47068;55.780;37.520;2022-07-21T13:13:37;3.78;;;3.47;;
61204;SDS011;47068;55.780;37.520;2022-07-21T13:16:03;3.90;;;3.60;;
61204;SDS011;47068;55.780;37.520;2022-07-21T13:20:54;3.72;;;3.22;;
61204;SDS011;47068;55.780;37.520;2022-07-21T13:23:20;5.55;;;4.15;;
61204;SDS011;47068;55.780;37.520;2022-07-21T13:25:47;4.82;;;4.30;;
61204;SDS011;47068;55.780;37.520;2022-07-21T13:28:14;6.82;;;3.38;;
61204;SDS011;47068;55.780;37.520;2022-07-21T13:30:40;4.40;;;4.00;;
61204;SDS011;47068;55.780;37.520;2022-07-21T13:33:06;3.80;;;3.50;;
61204;SDS011;47068;55.780;37.520;2022-07-21T13:35:32;7.03;;;3.55;;
61204;SDS011;47068;55.780;37.520;2022-07-21T13:40:24;3.92;;;3.63;;
61204;SDS011;47068;55.780;37.520;2022-07-21T13:42:50;4.63;;;3.78;;
61204;SDS011;47068;55.780;37.520;2022-07-21T13:45:16;7.68;;;3.50;;
61204;SDS011;47068;55.780;37.520;2022-07-21T13:50:07;5.13;;;3.75;;
61204;SDS011;47068;55.780;37.520;2022-07-21T13:52:33;6.53;;;3.60;;
61204;SDS011;47068;55.780;37.520;2022-07-21T13:57:25;4.15;;;3.60;;
61204;SDS011;47068;55.780;37.520;2022-07-21T14:02:16;4.13;;;3.47;;
61204;SDS011;47068;55.780;37.520;2022-07-21T14:07:07;5.75;;;3.38;;
61204;SDS011;47068;55.780;37.520;2022-07-21T14:11:58;6.93;;;3.60;;
61204;SDS011;47068;55.780;37.520;2022-07-21T14:16:51;4.55;;;4.15;;
61204;SDS011;47068;55.780;37.520;2022-07-21T14:19:18;4.40;;;4.00;;
61204;SDS011;47068;55.780;37.520;2022-07-21T14:24:09;4.57;;;4.22;;
61204;SDS011;47068;55.780;37.520;2022-07-21T14:26:53;4.35;;;3.90;;
61204;SDS011;47068;55.780;37.520;2022-07-21T14:31:44;4.43;;;4.13;;
61204;SDS011;47068;55.780;37.520;2022-07-21T14:36:35;5.18;;;4.78;;
61204;SDS011;47068;55.780;37.520;2022-07-21T14:41:25;4.60;;;4.20;;
61204;SDS011;47068;55.780;37.520;2022-07-21T14:46:16;10.63;;;9.82;;
61204;SDS011;47068;55.780;37.520;2022-07-21T14:48:42;13.07;;;12.20;;
61204;SDS011;47068;55.780;37.520;2022-07-21T14:51:15;10.88;;;10.00;;
61204;SDS011;47068;55.780;37.520;2022-07-21T14:53:40;14.20;;;13.40;;
61204;SDS011;47068;55.780;37.520;2022-07-21T14:56:06;12.82;;;11.77;;
61204;SDS011;47068;55.780;37.520;2022-07-21T14:58:31;11.20;;;10.38;;
61204;SDS011;47068;55.780;37.520;2022-07-21T15:00:59;8.93;;;8.10;;
61204;SDS011;47068;55.780;37.520;2022-07-21T15:03:25;6.80;;;6.20;;
61204;SDS011;47068;55.780;37.520;2022-07-21T15:05:50;6.18;;;5.63;;
61204;SDS011;47068;55.780;37.520;2022-07-21T15:08:16;4.75;;;4.35;;
61204;SDS011;47068;55.780;37.520;2022-07-21T15:10:42;10.10;;;4.80;;
61204;SDS011;47068;55.780;37.520;2022-07-21T15:13:08;5.35;;;4.85;;
61204;SDS011;47068;55.780;37.520;2022-07-21T15:15:33;8.10;;;4.90;;
61204;SDS011;47068;55.780;37.520;2022-07-21T15:18:01;4.65;;;4.25;;
61204;SDS011;47068;55.780;37.520;2022-07-21T15:20:27;8.98;;;4.50;;
61204;SDS011;47068;55.780;37.520;2022-07-21T15:22:53;4.20;;;3.40;;
61204;SDS011;47068;55.780;37.520;2022-07-21T15:25:21;4.53;;;4.00;;
61204;SDS011;47068;55.780;37.520;2022-07-21T15:27:46;4.57;;;3.67;;
61204;SDS011;47068;55.780;37.520;2022-07-21T15:30:13;6.68;;;3.90;;
61204;SDS011;47068;55.780;37.520;2022-07-21T15:32:40;4.93;;;4.50;;
61204;SDS011;47068;55.780;37.520;2022-07-21T15:35:10;3.92;;;3.53;;
61204;SDS011;47068;55.780;37.520;2022-07-21T15:37:35;4.00;;;3.60;;
61204;SDS011;47068;55.780;37.520;2022-07-21T15:40:02;5.00;;;4.10;;
61204;SDS011;47068;55.780;37.520;2022-07-21T15:42:29;6.47;;;4.57;;
61204;SDS011;47068;55.780;37.520;2022-07-21T15:44:56;6.00;;;4.50;;
61204;SDS011;47068;55.780;37.520;2022-07-21T15:47:23;7.43;;;3.90;;
61204;SDS011;47068;55.780;37.520;2022-07-21T15:49:49;5.75;;;5.00;;
61204;SDS011;47068;55.780;37.520;2022-07-21T15:52:14;4.60;;;4.18;;
61204;SDS011;47068;55.780;37.520;2022-07-21T15:54:40;4.25;;;3.67;;
61204;SDS011;47068;55.780;37.520;2022-07-21T15:57:07;4.68;;;4.28;;
61204;SDS011;47068;55.780;37.520;2022-07-21T15:59:34;4.35;;;4.05;;
61204;SDS011;47068;55.780;37.520;2022-07-21T16:02:07;4.43;;;4.03;;
61204;SDS011;47068;55.780;37.520;2022-07-21T16:04:36;21.87;;;10.90;;
61204;SDS011;47068;55.780;37.520;2022-07-21T16:07:05;4.63;;;4.05;;
61204;SDS011;47068;55.780;37.520;2022-07-21T16:09:32;4.28;;;3.90;;
61204;SDS011;47068;55.780;37.520;2022-07-21T16:11:59;6.78;;;4.85;;
61204;SDS011;47068;55.780;37.520;2022-07-21T16:14:25;6.97;;;4.63;;
61204;SDS011;47068;55.780;37.520;2022-07-21T16:16:51;5.38;;;4.10;;
61204;SDS011;47068;55.780;37.520;2022-07-21T16:19:18;4.50;;;4.10;;
61204;SDS011;47068;55.780;37.520;2022-07-21T16:21:44;6.72;;;3.50;;
61204;SDS011;47068;55.780;37.520;2022-07-21T16:24:10;4.43;;;4.00;;
61204;SDS011;47068;55.780;37.520;2022-07-21T16:29:01;3.95;;;3.65;;
61204;SDS011;47068;55.780;37.520;2022-07-21T16:31:26;7.32;;;4.50;;
61204;SDS011;47068;55.780;37.520;2022-07-21T16:33:54;3.70;;;3.40;;
61204;SDS011;47068;55.780;37.520;2022-07-21T16:36:20;3.58;;;3.28;;
61204;SDS011;47068;55.780;37.520;2022-07-21T16:38:45;3.40;;;3.10;;
61204;SDS011;47068;55.780;37.520;2022-07-21T16:43:36;3.80;;;3.50;;
61204;SDS011;47068;55.780;37.520;2022-07-21T16:46:02;4.35;;;3.30;;
61204;SDS011;47068;55.780;37.520;2022-07-21T16:48:27;3.60;;;3.30;;
61204;SDS011;47068;55.780;37.520;2022-07-21T16:50:53;5.13;;;3.50;;
61204;SDS011;47068;55.780;37.520;2022-07-21T16:55:44;3.08;;;2.88;;
61204;SDS011;47068;55.780;37.520;2022-07-21T16:58:09;3.58;;;3.28;;
61204;SDS011;47068;55.780;37.520;2022-07-21T17:00:35;3.28;;;3.03;;
61204;SDS011;47068;55.780;37.520;2022-07-21T17:03:01;5.28;;;4.70;;
61204;SDS011;47068;55.780;37.520;2022-07-21T17:05:27;3.88;;;3.58;;
61204;SDS011;47068;55.780;37.520;2022-07-21T17:07:52;5.03;;;4.63;;
61204;SDS011;47068;55.780;37.520;2022-07-21T17:10:18;6.13;;;5.72;;
61204;SDS011;47068;55.780;37.520;2022-07-21T17:12:43;6.60;;;5.88;;
61204;SDS011;47068;55.780;37.520;2022-07-21T17:15:09;6.00;;;5.05;;
61204;SDS011;47068;55.780;37.520;2022-07-21T17:17:36;6.80;;;6.30;;
61204;SDS011;47068;55.780;37.520;2022-07-21T17:20:02;9.57;;;8.65;;
61204;SDS011;47068;55.780;37.520;2022-07-21T17:22:29;6.55;;;6.05;;
61204;SDS011;47068;55.780;37.520;2022-07-21T17:24:55;6.20;;;5.70;;
61204;SDS011;47068;55.780;37.520;2022-07-21T17:27:20;6.47;;;5.72;;
61204;SDS011;47068;55.780;37.520;2022-07-21T17:29:46;5.32;;;4.40;;
61204;SDS011;47068;55.780;37.520;2022-07-21T17:32:12;5.88;;;4.03;;
61204;SDS011;47068;55.780;37.520;2022-07-21T17:34:37;4.70;;;4.30;;
61204;SDS011;47068;55.780;37.520;2022-07-21T17:37:02;5.00;;;4.60;;
61204;SDS011;47068;55.780;37.520;2022-07-21T17:39:28;7.05;;;5.15;;
61204;SDS011;47068;55.780;37.520;2022-07-21T17:41:54;5.15;;;4.75;;
61204;SDS011;47068;55.780;37.520;2022-07-21T17:44:19;8.02;;;5.47;;
61204;SDS011;47068;55.780;37.520;2022-07-21T17:46:45;5.75;;;5.25;;
61204;SDS011;47068;55.780;37.520;2022-07-21T17:49:10;5.70;;;5.15;;
61204;SDS011;47068;55.780;37.520;2022-07-21T17:51:36;5.40;;;4.80;;
61204;SDS011;47068;55.780;37.520;2022-07-21T17:54:01;5.50;;;5.00;;
61204;SDS011;47068;55.780;37.520;2022-07-21T17:56:27;6.35;;;5.30;;
61204;SDS011;47068;55.780;37.520;2022-07-21T17:58:52;5.13;;;4.65;;
61204;SDS011;47068;55.780;37.520;2022-07-21T18:01:18;5.20;;;4.80;;
61204;SDS011;47068;55.780;37.520;2022-07-21T18:03:53;6.45;;;5.10;;
61204;SDS011;47068;55.780;37.520;2022-07-21T18:06:19;13.32;;;9.38;;
61204;SDS011;47068;55.780;37.520;2022-07-21T18:08:46;6.38;;;5.43;;
61204;SDS011;47068;55.780;37.520;2022-07-21T18:11:13;7.80;;;5.90;;
61204;SDS011;47068;55.780;37.520;2022-07-21T18:13:39;6.10;;;5.00;;
61204;SDS011;47068;55.780;37.520;2022-07-21T18:18:30;5.97;;;4.57;;
61204;SDS011;47068;55.780;37.520;2022-07-21T18:20:56;5.75;;;5.15;;
61204;SDS011;47068;55.780;37.520;2022-07-21T18:23:22;8.95;;;4.60;;
61204;SDS011;47068;55.780;37.520;2022-07-21T18:25:48;5.20;;;4.70;;
61204;SDS011;47068;55.780;37.520;2022-07-21T18:28:13;5.50;;;4.82;;
61204;SDS011;47068;55.780;37.520;2022-07-21T18:30:43;5.82;;;4.72;;
61204;SDS011;47068;55.780;37.520;2022-07-21T18:33:10;5.32;;;4.65;;
61204;SDS011;47068;55.780;37.520;2022-07-21T18:35:35;5.90;;;5.40;;
61204;SDS011;47068;55.780;37.520;2022-07-21T18:38:01;7.57;;;4.72;;
61204;SDS011;47068;55.780;37.520;2022-07-21T18:40:27;9.38;;;5.20;;
61204;SDS011;47068;55.780;37.520;2022-07-21T18:45:18;5.75;;;4.88;;
61204;SDS011;47068;55.780;37.520;2022-07-21T18:47:43;4.85;;;4.32;;
61204;SDS011;47068;55.780;37.520;2022-07-21T18:50:09;5.32;;;4.72;;
61204;SDS011;47068;55.780;37.520;2022-07-21T18:52:46;5.88;;;4.90;;
61204;SDS011;47068;55.780;37.520;2022-07-21T18:55:11;4.78;;;4.28;;
61204;SDS011;47068;55.780;37.520;2022-07-21T18:57:38;4.43;;;3.80;;
61204;SDS011;47068;55.780;37.520;2022-07-21T19:00:05;4.10;;;3.70;;
61204;SDS011;47068;55.780;37.520;2022-07-21T19:02:33;5.03;;;4.18;;
61204;SDS011;47068;55.780;37.520;2022-07-21T19:04:59;4.20;;;3.80;;
61204;SDS011;47068;55.780;37.520;2022-07-21T19:07:25;5.15;;;4.30;;
61204;SDS011;47068;55.780;37.520;2022-07-21T19:09:50;5.05;;;4.55;;
61204;SDS011;47068;55.780;37.520;2022-07-21T19:12:15;5.07;;;4.40;;
61204;SDS011;47068;55.780;37.520;2022-07-21T19:14:41;5.85;;;4.45;;
61204;SDS011;47068;55.780;37.520;2022-07-21T19:17:07;4.53;;;4.13;;
61204;SDS011;47068;55.780;37.520;2022-07-21T19:19:33;7.70;;;4.47;;
61204;SDS011;47068;55.780;37.520;2022-07-21T19:21:58;8.65;;;4.60;;
61204;SDS011;47068;55.780;37.520;2022-07-21T19:24:24;4.50;;;4.10;;
61204;SDS011;47068;55.780;37.520;2022-07-21T19:26:49;5.40;;;3.95;;
61204;SDS011;47068;55.780;37.520;2022-07-21T19:29:20;4.72;;;3.70;;
61204;SDS011;47068;55.780;37.520;2022-07-21T19:31:45;5.07;;;4.25;;
61204;SDS011;47068;55.780;37.520;2022-07-21T19:34:15;4.90;;;3.90;;
61204;SDS011;47068;55.780;37.520;2022-07-21T19:36:41;4.03;;;3.63;;
61204;SDS011;47068;55.780;37.520;2022-07-21T19:39:07;4.90;;;3.80;;
61204;SDS011;47068;55.780;37.520;2022-07-21T19:41:32;4.57;;;4.15;;
61204;SDS011;47068;55.780;37.520;2022-07-21T19:43:58;7.07;;;4.18;;
61204;SDS011;47068;55.780;37.520;2022-07-21T19:46:23;4.22;;;3.70;;
61204;SDS011;47068;55.780;37.520;2022-07-21T19:48:49;5.97;;;4.03;;
61204;SDS011;47068;55.780;37.520;2022-07-21T19:51:14;6.22;;;4.30;;
61204;SDS011;47068;55.780;37.520;2022-07-21T19:53:40;4.10;;;3.70;;
61204;SDS011;47068;55.780;37.520;2022-07-21T19:56:05;4.95;;;3.90;;
61204;SDS011;47068;55.780;37.520;2022-07-21T20:00:57;4.53;;;4.05;;
61204;SDS011;47068;55.780;37.520;2022-07-21T20:03:22;4.13;;;3.53;;
61204;SDS011;47068;55.780;37.520;2022-07-21T20:05:48;4.82;;;3.83;;
61204;SDS011;47068;55.780;37.520;2022-07-21T20:08:14;6.82;;;3.55;;
61204;SDS011;47068;55.780;37.520;2022-07-21T20:10:39;3.63;;;3.33;;
61204;SDS011;47068;55.780;37.520;2022-07-21T20:15:31;6.68;;;3.92;;
61204;SDS011;47068;55.780;37.520;2022-07-21T20:17:57;4.68;;;3.67;;
61204;SDS011;47068;55.780;37.520;2022-07-21T20:20:23;5.05;;;4.00;;
61204;SDS011;47068;55.780;37.520;2022-07-21T20:22:49;4.05;;;3.67;;
61204;SDS011;47068;55.780;37.520;2022-07-21T20:25:15;4.85;;;3.78;;
61204;SDS011;47068;55.780;37.520;2022-07-21T20:27:41;4.00;;;3.10;;
61204;SDS011;47068;55.780;37.520;2022-07-21T20:30:08;3.83;;;3.42;;
61204;SDS011;47068;55.780;37.520;2022-07-21T20:32:36;6.85;;;3.67;;
61204;SDS011;47068;55.780;37.520;2022-07-21T20:35:02;5.00;;;3.42;;
61204;SDS011;47068;55.780;37.520;2022-07-21T20:37:28;6.47;;;3.90;;
61204;SDS011;47068;55.780;37.520;2022-07-21T20:39:53;4.68;;;4.00;;
61204;SDS011;47068;55.780;37.520;2022-07-21T20:42:18;4.50;;;3.60;;
61204;SDS011;47068;55.780;37.520;2022-07-21T20:44:44;4.22;;;3.83;;
61204;SDS011;47068;55.780;37.520;2022-07-21T20:47:09;4.40;;;4.00;;
61204;SDS011;47068;55.780;37.520;2022-07-21T20:49:35;5.70;;;4.13;;
61204;SDS011;47068;55.780;37.520;2022-07-21T20:52:01;5.47;;;3.60;;
61204;SDS011;47068;55.780;37.520;2022-07-21T20:54:27;4.43;;;3.80;;
61204;SDS011;47068;55.780;37.520;2022-07-21T20:56:52;4.60;;;3.75;;
61204;SDS011;47068;55.780;37.520;2022-07-21T20:59:17;7.47;;;3.97;;
61204;SDS011;47068;55.780;37.520;2022-07-21T21:01:43;4.28;;;3.80;;
61204;SDS011;47068;55.780;37.520;2022-07-21T21:04:08;4.07;;;3.67;;
61204;SDS011;47068;55.780;37.520;2022-07-21T21:06:37;5.63;;;4.03;;
61204;SDS011;47068;55.780;37.520;2022-07-21T21:09:06;5.20;;;3.65;;
61204;SDS011;47068;55.780;37.520;2022-07-21T21:11:32;5.45;;;3.75;;
61204;SDS011;47068;55.780;37.520;2022-07-21T21:13:58;5.68;;;4.40;;
61204;SDS011;47068;55.780;37.520;2022-07-21T21:16:23;6.95;;;3.90;;
61204;SDS011;47068;55.780;37.520;2022-07-21T21:18:49;4.25;;;3.85;;
61204;SDS011;47068;55.780;37.520;2022-07-21T21:21:16;4.20;;;3.80;;
61204;SDS011;47068;55.780;37.520;2022-07-21T21:23:41;4.32;;;3.92;;
61204;SDS011;47068;55.780;37.520;2022-07-21T21:26:07;5.50;;;4.45;;
61204;SDS011;47068;55.780;37.520;2022-07-21T21:28:32;4.07;;;3.67;;
61204;SDS011;47068;55.780;37.520;2022-07-21T21:30:58;4.63;;;4.22;;
61204;SDS011;47068;55.780;37.520;2022-07-21T21:33:24;5.45;;;4.30;;
61204;SDS011;47068;55.780;37.520;2022-07-21T21:38:16;4.10;;;3.70;;
61204;SDS011;47068;55.780;37.520;2022-07-21T21:40:41;4.85;;;4.07;;
61204;SDS011;47068;55.780;37.520;2022-07-21T21:43:08;4.78;;;3.90;;
61204;SDS011;47068;55.780;37.520;2022-07-21T21:45:34;9.13;;;4.30;;
61204;SDS011;47068;55.780;37.520;2022-07-21T21:47:59;3.92;;;3.63;;
61204;SDS011;47068;55.780;37.520;2022-07-21T21:50:25;3.80;;;3.50;;
61204;SDS011;47068;55.780;37.520;2022-07-21T21:52:51;4.65;;;4.10;;
61204;SDS011;47068;55.780;37.520;2022-07-21T21:55:16;6.38;;;3.80;;
61204;SDS011;47068;55.780;37.520;2022-07-21T21:57:42;4.55;;;3.88;;
61204;SDS011;47068;55.780;37.520;2022-07-21T22:00:10;4.25;;;3.85;;
61204;SDS011;47068;55.780;37.520;2022-07-21T22:02:37;4.55;;;4.15;;
61204;SDS011;47068;55.780;37.520;2022-07-21T22:05:06;4.57;;;4.18;;
61204;SDS011;47068;55.780;37.520;2022-07-21T22:07:35;4.70;;;3.95;;
61204;SDS011;47068;55.780;37.520;2022-07-21T22:10:02;6.00;;;4.00;;
61204;SDS011;47068;55.780;37.520;2022-07-21T22:12:35;4.63;;;4.22;;
61204;SDS011;47068;55.780;37.520;2022-07-21T22:15:01;4.65;;;4.13;;
61204;SDS011;47068;55.780;37.520;2022-07-21T22:17:27;7.20;;;4.03;;
61204;SDS011;47068;55.780;37.520;2022-07-21T22:19:53;5.30;;;3.70;;
61204;SDS011;47068;55.780;37.520;2022-07-21T22:22:18;3.58;;;3.25;;
61204;SDS011;47068;55.780;37.520;2022-07-21T22:24:43;3.85;;;3.53;;
61204;SDS011;47068;55.780;37.520;2022-07-21T22:27:09;4.65;;;4.05;;
61204;SDS011;47068;55.780;37.520;2022-07-21T22:29:34;4.00;;;3.70;;
61204;SDS011;47068;55.780;37.520;2022-07-21T22:32:00;3.95;;;3.60;;
61204;SDS011;47068;55.780;37.520;2022-07-21T22:34:26;4.40;;;4.00;;
61204;SDS011;47068;55.780;37.520;2022-07-21T22:36:53;4.00;;;3.05;;
61204;SDS011;47068;55.780;37.520;2022-07-21T22:39:19;3.47;;;3.17;;
61204;SDS011;47068;55.780;37.520;2022-07-21T22:41:44;4.43;;;3.85;;
61204;SDS011;47068;55.780;37.520;2022-07-21T22:44:10;4.13;;;3.80;;
61204;SDS011;47068;55.780;37.520;2022-07-21T22:46:35;5.15;;;3.78;;
61204;SDS011;47068;55.780;37.520;2022-07-21T22:49:01;4.35;;;3.95;;
61204;SDS011;47068;55.780;37.520;2022-07-21T22:53:53;4.47;;;4.10;;
61204;SDS011;47068;55.780;37.520;2022-07-21T22:56:20;4.40;;;4.00;;
61204;SDS011;47068;55.780;37.520;2022-07-21T22:58:46;5.93;;;4.00;;
61204;SDS011;47068;55.780;37.520;2022-07-21T23:01:11;4.50;;;4.10;;
61204;SDS011;47068;55.780;37.520;2022-07-21T23:03:37;4.40;;;4.00;;
61204;SDS011;47068;55.780;37.520;2022-07-21T23:06:02;5.53;;;4.10;;
61204;SDS011;47068;55.780;37.520;2022-07-21T23:08:28;4.35;;;3.80;;
61204;SDS011;47068;55.780;37.520;2022-07-21T23:10:53;5.40;;;4.00;;
61204;SDS011;47068;55.780;37.520;2022-07-21T23:13:19;5.13;;;4.00;;
61204;SDS011;47068;55.780;37.520;2022-07-21T23:15:44;4.20;;;3.90;;
61204;SDS011;47068;55.780;37.520;2022-07-21T23:18:10;5.63;;;3.88;;
61204;SDS011;47068;55.780;37.520;2022-07-21T23:20:35;4.20;;;3.80;;
61204;SDS011;47068;55.780;37.520;2022-07-21T23:23:01;3.92;;;3.60;;
61204;SDS011;47068;55.780;37.520;2022-07-21T23:25:26;4.45;;;3.72;;
61204;SDS011;47068;55.780;37.520;2022-07-21T23:27:52;4.65;;;4.20;;
61204;SDS011;47068;55.780;37.520;2022-07-21T23:30:20;4.13;;;3.75;;
61204;SDS011;47068;55.780;37.520;2022-07-21T23:32:48;3.95;;;3.65;;
61204;SDS011;47068;55.780;37.520;2022-07-21T23:35:13;3.80;;;3.50;;
61204;SDS011;47068;55.780;37.520;2022-07-21T23:37:38;4.47;;;4.07;;
61204;SDS011;47068;55.780;37.520;2022-07-21T23:40:04;4.40;;;4.00;;
61204;SDS011;47068;55.780;37.520;2022-07-21T23:42:31;4.43;;;4.03;;
61204;SDS011;47068;55.780;37.520;2022-07-21T23:44:57;4.40;;;4.00;;
61204;SDS011;47068;55.780;37.520;2022-07-21T23:47:22;4.32;;;3.92;;
61204;SDS011;47068;55.780;37.520;2022-07-21T23:49:47;4.40;;;4.00;;
61204;SDS011;47068;55.780;37.520;2022-07-21T23:52:13;4.68;;;4.05;;
61204;SDS011;47068;55.780;37.520;2022-07-21T23:54:38;3.80;;;3.50;;
61204;SDS011;47068;55.780;37.520;2022-07-21T23:57:04;4.10;;;3.70;;
61204;SDS011;47068;55.780;37.520;2022-07-21T23:59:29;4.18;;;3.78;;
